sensor_id;sensor_type;location;lat;lon;timestamp;P1;durP1;ratioP1;P2;durP2;ratioP2
18042;SDS011;9146;48.074;11.968;2023-05-07T00:02:15;6.57;;;5.97;;
18042;SDS011;9146;48.074;11.968;2023-05-07T00:04:42;5.13;;;4.63;;
18042;SDS011;9146;48.074;11.968;2023-05-07T00:07:10;5.30;;;4.80;;
18042;SDS011;9146;48.074;11.968;2023-05-07T00:09:38;5.23;;;4.83;;
18042;SDS011;9146;48.074;11.968;2023-05-07T00:12:06;4.80;;;4.37;;
18042;SDS011;9146;48.074;11.968;2023-05-07T00:14:33;4.80;;;4.40;;
18042;SDS011;9146;48.074;11.968;2023-05-07T00:17:00;4.10;;;3.80;;
18042;SDS011;9146;48.074;11.968;2023-05-07T00:19:26;4.67;;;4.27;;
18042;SDS011;9146;48.074;11.968;2023-05-07T00:21:53;3.43;;;3.23;;
18042;SDS011;9146;48.074;11.968;2023-05-07T00:24:21;4.10;;;3.80;;
18042;SDS011;9146;48.074;11.968;2023-05-07T00:26:49;3.73;;;3.43;;
18042;SDS011;9146;48.074;11.968;2023-05-07T00:29:17;4.33;;;4.00;;
18042;SDS011;9146;48.074;11.968;2023-05-07T00:31:44;4.27;;;3.93;;
18042;SDS011;9146;48.074;11.968;2023-05-07T00:34:11;3.87;;;3.57;;
18042;SDS011;9146;48.074;11.968;2023-05-07T00:36:38;4.43;;;4.03;;
18042;SDS011;9146;48.074;11.968;2023-05-07T00:39:05;4.50;;;4.10;;
18042;SDS011;9146;48.074;11.968;2023-05-07T00:41:32;5.37;;;4.20;;
18042;SDS011;9146;48.074;11.968;2023-05-07T00:44:00;4.13;;;3.63;;
18042;SDS011;9146;48.074;11.968;2023-05-07T00:46:28;4.37;;;3.97;;
18042;SDS011;9146;48.074;11.968;2023-05-07T00:48:56;4.90;;;4.50;;
18042;SDS011;9146;48.074;11.968;2023-05-07T00:51:24;5.00;;;4.60;;
18042;SDS011;9146;48.074;11.968;2023-05-07T00:53:52;5.50;;;4.93;;
18042;SDS011;9146;48.074;11.968;2023-05-07T00:56:20;5.90;;;5.40;;
18042;SDS011;9146;48.074;11.968;2023-05-07T00:58:47;5.70;;;5.20;;
18042;SDS011;9146;48.074;11.968;2023-05-07T01:01:16;7.30;;;5.77;;
18042;SDS011;9146;48.074;11.968;2023-05-07T01:03:42;6.13;;;5.60;;
18042;SDS011;9146;48.074;11.968;2023-05-07T01:06:09;5.83;;;5.33;;
18042;SDS011;9146;48.074;11.968;2023-05-07T01:08:41;6.07;;;5.57;;
18042;SDS011;9146;48.074;11.968;2023-05-07T01:11:08;5.67;;;5.20;;
18042;SDS011;9146;48.074;11.968;2023-05-07T01:13:37;5.77;;;5.17;;
18042;SDS011;9146;48.074;11.968;2023-05-07T01:16:05;5.97;;;5.37;;
18042;SDS011;9146;48.074;11.968;2023-05-07T01:18:34;6.10;;;5.50;;
18042;SDS011;9146;48.074;11.968;2023-05-07T01:21:01;5.93;;;5.20;;
18042;SDS011;9146;48.074;11.968;2023-05-07T01:23:31;5.37;;;4.87;;
18042;SDS011;9146;48.074;11.968;2023-05-07T01:26:00;5.47;;;4.97;;
18042;SDS011;9146;48.074;11.968;2023-05-07T01:28:27;5.77;;;5.27;;
18042;SDS011;9146;48.074;11.968;2023-05-07T01:30:54;5.77;;;5.27;;
18042;SDS011;9146;48.074;11.968;2023-05-07T01:33:24;6.07;;;5.57;;
18042;SDS011;9146;48.074;11.968;2023-05-07T01:35:56;6.93;;;6.10;;
18042;SDS011;9146;48.074;11.968;2023-05-07T01:38:25;7.57;;;6.97;;
18042;SDS011;9146;48.074;11.968;2023-05-07T01:40:54;10.40;;;9.40;;
18042;SDS011;9146;48.074;11.968;2023-05-07T01:43:22;10.93;;;8.90;;
18042;SDS011;9146;48.074;11.968;2023-05-07T01:45:49;9.90;;;8.90;;
18042;SDS011;9146;48.074;11.968;2023-05-07T01:48:16;7.93;;;7.17;;
18042;SDS011;9146;48.074;11.968;2023-05-07T01:50:44;7.60;;;6.90;;
18042;SDS011;9146;48.074;11.968;2023-05-07T01:53:11;9.07;;;8.17;;
18042;SDS011;9146;48.074;11.968;2023-05-07T01:55:38;7.87;;;7.07;;
18042;SDS011;9146;48.074;11.968;2023-05-07T01:58:06;6.43;;;5.93;;
18042;SDS011;9146;48.074;11.968;2023-05-07T02:00:34;6.60;;;6.10;;
18042;SDS011;9146;48.074;11.968;2023-05-07T02:03:01;7.23;;;6.47;;
18042;SDS011;9146;48.074;11.968;2023-05-07T02:05:28;7.40;;;6.70;;
18042;SDS011;9146;48.074;11.968;2023-05-07T02:07:54;8.87;;;7.80;;
18042;SDS011;9146;48.074;11.968;2023-05-07T02:10:21;8.43;;;7.63;;
18042;SDS011;9146;48.074;11.968;2023-05-07T02:12:48;7.43;;;6.83;;
18042;SDS011;9146;48.074;11.968;2023-05-07T02:15:16;8.00;;;7.30;;
18042;SDS011;9146;48.074;11.968;2023-05-07T02:17:57;8.70;;;7.80;;
18042;SDS011;9146;48.074;11.968;2023-05-07T02:20:25;8.30;;;7.57;;
18042;SDS011;9146;48.074;11.968;2023-05-07T02:22:52;7.57;;;6.87;;
18042;SDS011;9146;48.074;11.968;2023-05-07T02:25:19;8.37;;;7.57;;
18042;SDS011;9146;48.074;11.968;2023-05-07T02:27:46;7.53;;;6.83;;
18042;SDS011;9146;48.074;11.968;2023-05-07T02:30:13;7.37;;;6.67;;
18042;SDS011;9146;48.074;11.968;2023-05-07T02:32:41;7.97;;;7.17;;
18042;SDS011;9146;48.074;11.968;2023-05-07T02:35:08;8.20;;;7.40;;
18042;SDS011;9146;48.074;11.968;2023-05-07T02:37:35;7.40;;;6.70;;
18042;SDS011;9146;48.074;11.968;2023-05-07T02:40:03;7.00;;;6.30;;
18042;SDS011;9146;48.074;11.968;2023-05-07T02:42:30;7.10;;;6.50;;
18042;SDS011;9146;48.074;11.968;2023-05-07T02:44:57;6.87;;;6.27;;
18042;SDS011;9146;48.074;11.968;2023-05-07T02:47:24;6.43;;;5.83;;
18042;SDS011;9146;48.074;11.968;2023-05-07T02:49:53;7.80;;;7.10;;
18042;SDS011;9146;48.074;11.968;2023-05-07T02:52:20;6.97;;;6.37;;
18042;SDS011;9146;48.074;11.968;2023-05-07T02:54:47;7.17;;;6.47;;
18042;SDS011;9146;48.074;11.968;2023-05-07T02:57:14;6.27;;;5.77;;
18042;SDS011;9146;48.074;11.968;2023-05-07T02:59:41;6.60;;;6.10;;
18042;SDS011;9146;48.074;11.968;2023-05-07T03:02:08;6.73;;;5.90;;
18042;SDS011;9146;48.074;11.968;2023-05-07T03:04:35;6.87;;;6.27;;
18042;SDS011;9146;48.074;11.968;2023-05-07T03:07:05;6.47;;;5.80;;
18042;SDS011;9146;48.074;11.968;2023-05-07T03:09:31;8.50;;;6.80;;
18042;SDS011;9146;48.074;11.968;2023-05-07T03:11:58;7.87;;;7.00;;
18042;SDS011;9146;48.074;11.968;2023-05-07T03:14:26;8.27;;;7.47;;
18042;SDS011;9146;48.074;11.968;2023-05-07T03:16:53;7.43;;;6.20;;
18042;SDS011;9146;48.074;11.968;2023-05-07T03:19:20;6.90;;;6.20;;
18042;SDS011;9146;48.074;11.968;2023-05-07T03:21:47;7.20;;;6.50;;
18042;SDS011;9146;48.074;11.968;2023-05-07T03:24:16;10.97;;;9.07;;
18042;SDS011;9146;48.074;11.968;2023-05-07T03:26:42;8.23;;;7.43;;
18042;SDS011;9146;48.074;11.968;2023-05-07T03:29:09;9.03;;;8.07;;
18042;SDS011;9146;48.074;11.968;2023-05-07T03:31:36;10.90;;;8.83;;
18042;SDS011;9146;48.074;11.968;2023-05-07T03:34:03;8.93;;;7.83;;
18042;SDS011;9146;48.074;11.968;2023-05-07T03:36:30;8.27;;;7.37;;
18042;SDS011;9146;48.074;11.968;2023-05-07T03:38:57;8.50;;;7.60;;
18042;SDS011;9146;48.074;11.968;2023-05-07T03:41:25;10.30;;;7.90;;
18042;SDS011;9146;48.074;11.968;2023-05-07T03:43:54;8.43;;;7.53;;
18042;SDS011;9146;48.074;11.968;2023-05-07T03:46:21;8.93;;;8.03;;
18042;SDS011;9146;48.074;11.968;2023-05-07T03:48:51;9.50;;;8.50;;
18042;SDS011;9146;48.074;11.968;2023-05-07T03:51:17;8.30;;;7.47;;
18042;SDS011;9146;48.074;11.968;2023-05-07T03:53:44;8.73;;;7.10;;
18042;SDS011;9146;48.074;11.968;2023-05-07T03:56:11;8.87;;;7.97;;
18042;SDS011;9146;48.074;11.968;2023-05-07T03:58:39;9.57;;;7.90;;
18042;SDS011;9146;48.074;11.968;2023-05-07T04:01:06;10.17;;;7.67;;
18042;SDS011;9146;48.074;11.968;2023-05-07T04:03:35;9.20;;;7.87;;
18042;SDS011;9146;48.074;11.968;2023-05-07T04:06:01;8.93;;;8.03;;
18042;SDS011;9146;48.074;11.968;2023-05-07T04:08:28;7.70;;;6.93;;
18042;SDS011;9146;48.074;11.968;2023-05-07T04:10:55;8.20;;;7.40;;
18042;SDS011;9146;48.074;11.968;2023-05-07T04:13:22;8.27;;;7.37;;
18042;SDS011;9146;48.074;11.968;2023-05-07T04:15:50;7.80;;;7.00;;
18042;SDS011;9146;48.074;11.968;2023-05-07T04:18:18;7.93;;;6.87;;
18042;SDS011;9146;48.074;11.968;2023-05-07T04:20:45;7.63;;;7.00;;
18042;SDS011;9146;48.074;11.968;2023-05-07T04:23:11;8.30;;;7.50;;
18042;SDS011;9146;48.074;11.968;2023-05-07T04:25:38;7.90;;;7.20;;
18042;SDS011;9146;48.074;11.968;2023-05-07T04:28:05;9.10;;;8.20;;
18042;SDS011;9146;48.074;11.968;2023-05-07T04:30:32;8.53;;;7.77;;
18042;SDS011;9146;48.074;11.968;2023-05-07T04:33:00;7.87;;;7.03;;
18042;SDS011;9146;48.074;11.968;2023-05-07T04:35:27;8.50;;;7.70;;
18042;SDS011;9146;48.074;11.968;2023-05-07T04:37:54;8.70;;;7.80;;
18042;SDS011;9146;48.074;11.968;2023-05-07T04:40:21;10.37;;;9.27;;
18042;SDS011;9146;48.074;11.968;2023-05-07T04:42:48;8.40;;;7.60;;
18042;SDS011;9146;48.074;11.968;2023-05-07T04:45:15;8.57;;;7.60;;
18042;SDS011;9146;48.074;11.968;2023-05-07T04:47:42;9.00;;;8.10;;
18042;SDS011;9146;48.074;11.968;2023-05-07T04:50:10;11.30;;;7.77;;
18042;SDS011;9146;48.074;11.968;2023-05-07T04:52:37;7.33;;;6.63;;
18042;SDS011;9146;48.074;11.968;2023-05-07T04:55:04;7.00;;;5.57;;
18042;SDS011;9146;48.074;11.968;2023-05-07T04:57:31;8.60;;;7.80;;
18042;SDS011;9146;48.074;11.968;2023-05-07T04:59:58;11.50;;;10.33;;
18042;SDS011;9146;48.074;11.968;2023-05-07T05:02:25;10.30;;;9.30;;
18042;SDS011;9146;48.074;11.968;2023-05-07T05:04:52;11.67;;;10.10;;
18042;SDS011;9146;48.074;11.968;2023-05-07T05:07:21;10.10;;;9.07;;
18042;SDS011;9146;48.074;11.968;2023-05-07T05:09:47;12.70;;;10.93;;
18042;SDS011;9146;48.074;11.968;2023-05-07T05:12:14;14.33;;;9.93;;
18042;SDS011;9146;48.074;11.968;2023-05-07T05:14:41;12.13;;;10.43;;
18042;SDS011;9146;48.074;11.968;2023-05-07T05:17:08;12.80;;;9.77;;
18042;SDS011;9146;48.074;11.968;2023-05-07T05:19:35;14.10;;;10.53;;
18042;SDS011;9146;48.074;11.968;2023-05-07T05:22:01;12.00;;;10.70;;
18042;SDS011;9146;48.074;11.968;2023-05-07T05:24:30;12.00;;;10.43;;
18042;SDS011;9146;48.074;11.968;2023-05-07T05:26:57;11.60;;;10.40;;
18042;SDS011;9146;48.074;11.968;2023-05-07T05:29:25;12.97;;;10.50;;
18042;SDS011;9146;48.074;11.968;2023-05-07T05:31:51;11.93;;;10.53;;
18042;SDS011;9146;48.074;11.968;2023-05-07T05:34:18;13.20;;;11.07;;
18042;SDS011;9146;48.074;11.968;2023-05-07T05:36:46;11.93;;;10.73;;
18042;SDS011;9146;48.074;11.968;2023-05-07T05:39:13;10.00;;;9.10;;
18042;SDS011;9146;48.074;11.968;2023-05-07T05:41:42;12.27;;;9.50;;
18042;SDS011;9146;48.074;11.968;2023-05-07T05:44:09;10.47;;;9.40;;
18042;SDS011;9146;48.074;11.968;2023-05-07T05:46:36;9.73;;;8.80;;
18042;SDS011;9146;48.074;11.968;2023-05-07T05:49:03;9.83;;;8.90;;
18042;SDS011;9146;48.074;11.968;2023-05-07T05:51:30;15.10;;;8.60;;
18042;SDS011;9146;48.074;11.968;2023-05-07T05:53:57;6.60;;;6.00;;
18042;SDS011;9146;48.074;11.968;2023-05-07T05:56:24;9.50;;;5.70;;
18042;SDS011;9146;48.074;11.968;2023-05-07T05:58:52;6.00;;;5.40;;
18042;SDS011;9146;48.074;11.968;2023-05-07T06:01:19;5.77;;;5.27;;
18042;SDS011;9146;48.074;11.968;2023-05-07T06:03:46;5.27;;;4.83;;
18042;SDS011;9146;48.074;11.968;2023-05-07T06:06:13;5.47;;;5.00;;
18042;SDS011;9146;48.074;11.968;2023-05-07T06:08:40;5.90;;;5.33;;
18042;SDS011;9146;48.074;11.968;2023-05-07T06:11:08;6.57;;;5.97;;
18042;SDS011;9146;48.074;11.968;2023-05-07T06:13:35;9.10;;;5.40;;
18042;SDS011;9146;48.074;11.968;2023-05-07T06:16:03;5.23;;;4.73;;
18042;SDS011;9146;48.074;11.968;2023-05-07T06:18:30;5.80;;;5.27;;
18042;SDS011;9146;48.074;11.968;2023-05-07T06:20:57;5.80;;;4.37;;
18042;SDS011;9146;48.074;11.968;2023-05-07T06:23:24;4.10;;;3.80;;
18042;SDS011;9146;48.074;11.968;2023-05-07T06:25:51;4.87;;;4.47;;
18042;SDS011;9146;48.074;11.968;2023-05-07T06:28:18;5.47;;;4.80;;
18042;SDS011;9146;48.074;11.968;2023-05-07T06:30:45;4.77;;;4.37;;
18042;SDS011;9146;48.074;11.968;2023-05-07T06:33:13;3.90;;;3.70;;
18042;SDS011;9146;48.074;11.968;2023-05-07T06:35:40;4.83;;;4.30;;
18042;SDS011;9146;48.074;11.968;2023-05-07T06:38:07;4.10;;;3.70;;
18042;SDS011;9146;48.074;11.968;2023-05-07T06:40:35;4.43;;;4.03;;
18042;SDS011;9146;48.074;11.968;2023-05-07T06:43:02;6.87;;;4.97;;
18042;SDS011;9146;48.074;11.968;2023-05-07T06:45:29;5.70;;;4.80;;
18042;SDS011;9146;48.074;11.968;2023-05-07T06:47:56;5.47;;;4.23;;
18042;SDS011;9146;48.074;11.968;2023-05-07T06:50:24;5.00;;;4.30;;
18042;SDS011;9146;48.074;11.968;2023-05-07T06:52:51;4.57;;;3.80;;
18042;SDS011;9146;48.074;11.968;2023-05-07T06:55:18;4.43;;;4.00;;
18042;SDS011;9146;48.074;11.968;2023-05-07T06:57:45;4.30;;;4.00;;
18042;SDS011;9146;48.074;11.968;2023-05-07T07:00:12;5.00;;;4.60;;
18042;SDS011;9146;48.074;11.968;2023-05-07T07:02:40;4.60;;;4.20;;
18042;SDS011;9146;48.074;11.968;2023-05-07T07:05:07;4.63;;;4.20;;
18042;SDS011;9146;48.074;11.968;2023-05-07T07:07:36;5.40;;;4.80;;
18042;SDS011;9146;48.074;11.968;2023-05-07T07:10:03;5.60;;;4.70;;
18042;SDS011;9146;48.074;11.968;2023-05-07T07:12:30;5.03;;;4.43;;
18042;SDS011;9146;48.074;11.968;2023-05-07T07:14:57;5.27;;;4.80;;
18042;SDS011;9146;48.074;11.968;2023-05-07T07:17:24;5.60;;;4.87;;
18042;SDS011;9146;48.074;11.968;2023-05-07T07:19:51;7.10;;;6.00;;
18042;SDS011;9146;48.074;11.968;2023-05-07T07:22:18;5.07;;;4.60;;
18042;SDS011;9146;48.074;11.968;2023-05-07T07:24:46;4.63;;;4.10;;
18042;SDS011;9146;48.074;11.968;2023-05-07T07:27:14;5.80;;;4.93;;
18042;SDS011;9146;48.074;11.968;2023-05-07T07:29:41;6.03;;;5.50;;
18042;SDS011;9146;48.074;11.968;2023-05-07T07:32:08;6.70;;;5.30;;
18042;SDS011;9146;48.074;11.968;2023-05-07T07:34:35;5.30;;;4.57;;
18042;SDS011;9146;48.074;11.968;2023-05-07T07:37:02;9.30;;;6.00;;
18042;SDS011;9146;48.074;11.968;2023-05-07T07:39:31;6.00;;;5.50;;
18042;SDS011;9146;48.074;11.968;2023-05-07T07:41:59;6.10;;;5.60;;
18042;SDS011;9146;48.074;11.968;2023-05-07T07:44:27;9.10;;;6.23;;
18042;SDS011;9146;48.074;11.968;2023-05-07T07:46:54;8.97;;;4.80;;
18042;SDS011;9146;48.074;11.968;2023-05-07T07:49:21;7.50;;;6.60;;
18042;SDS011;9146;48.074;11.968;2023-05-07T07:51:48;6.27;;;5.70;;
18042;SDS011;9146;48.074;11.968;2023-05-07T07:54:14;6.87;;;5.97;;
18042;SDS011;9146;48.074;11.968;2023-05-07T07:56:41;6.37;;;5.80;;
18042;SDS011;9146;48.074;11.968;2023-05-07T07:59:10;6.10;;;5.50;;
18042;SDS011;9146;48.074;11.968;2023-05-07T08:01:38;6.10;;;5.50;;
18042;SDS011;9146;48.074;11.968;2023-05-07T08:04:05;5.43;;;5.03;;
18042;SDS011;9146;48.074;11.968;2023-05-07T08:06:32;5.90;;;5.40;;
18042;SDS011;9146;48.074;11.968;2023-05-07T08:08:59;4.93;;;4.53;;
18042;SDS011;9146;48.074;11.968;2023-05-07T08:11:26;4.57;;;4.17;;
18042;SDS011;9146;48.074;11.968;2023-05-07T08:13:53;5.10;;;4.70;;
18042;SDS011;9146;48.074;11.968;2023-05-07T08:16:22;4.90;;;4.53;;
18042;SDS011;9146;48.074;11.968;2023-05-07T08:18:49;4.80;;;4.40;;
18042;SDS011;9146;48.074;11.968;2023-05-07T08:21:16;8.47;;;6.60;;
18042;SDS011;9146;48.074;11.968;2023-05-07T08:23:43;5.83;;;5.33;;
18042;SDS011;9146;48.074;11.968;2023-05-07T08:26:10;6.80;;;6.17;;
18042;SDS011;9146;48.074;11.968;2023-05-07T08:28:37;5.80;;;5.20;;
18042;SDS011;9146;48.074;11.968;2023-05-07T08:31:04;6.50;;;5.03;;
18042;SDS011;9146;48.074;11.968;2023-05-07T08:33:33;6.10;;;5.50;;
18042;SDS011;9146;48.074;11.968;2023-05-07T08:36:00;5.40;;;4.90;;
18042;SDS011;9146;48.074;11.968;2023-05-07T08:38:26;6.30;;;5.50;;
18042;SDS011;9146;48.074;11.968;2023-05-07T08:40:53;6.77;;;5.10;;
18042;SDS011;9146;48.074;11.968;2023-05-07T08:43:20;5.70;;;5.00;;
18042;SDS011;9146;48.074;11.968;2023-05-07T08:45:49;6.07;;;5.53;;
18042;SDS011;9146;48.074;11.968;2023-05-07T08:48:19;6.20;;;5.17;;
18042;SDS011;9146;48.074;11.968;2023-05-07T08:50:52;4.87;;;4.40;;
18042;SDS011;9146;48.074;11.968;2023-05-07T08:53:19;5.90;;;5.30;;
18042;SDS011;9146;48.074;11.968;2023-05-07T08:55:47;5.73;;;4.93;;
18042;SDS011;9146;48.074;11.968;2023-05-07T08:58:14;6.37;;;5.77;;
18042;SDS011;9146;48.074;11.968;2023-05-07T09:00:41;4.73;;;4.40;;
18042;SDS011;9146;48.074;11.968;2023-05-07T09:03:08;5.37;;;4.97;;
18042;SDS011;9146;48.074;11.968;2023-05-07T09:05:37;5.37;;;4.87;;
18042;SDS011;9146;48.074;11.968;2023-05-07T09:08:05;4.63;;;4.20;;
18042;SDS011;9146;48.074;11.968;2023-05-07T09:10:34;5.20;;;4.80;;
18042;SDS011;9146;48.074;11.968;2023-05-07T09:13:02;6.33;;;5.30;;
18042;SDS011;9146;48.074;11.968;2023-05-07T09:15:29;6.57;;;5.00;;
18042;SDS011;9146;48.074;11.968;2023-05-07T09:17:59;4.30;;;4.00;;
18042;SDS011;9146;48.074;11.968;2023-05-07T09:20:27;4.23;;;3.93;;
18042;SDS011;9146;48.074;11.968;2023-05-07T09:22:56;4.47;;;4.07;;
18042;SDS011;9146;48.074;11.968;2023-05-07T09:25:29;3.70;;;3.40;;
18042;SDS011;9146;48.074;11.968;2023-05-07T09:27:56;5.20;;;3.47;;
18042;SDS011;9146;48.074;11.968;2023-05-07T09:30:26;5.63;;;4.43;;
18042;SDS011;9146;48.074;11.968;2023-05-07T09:32:54;6.33;;;4.57;;
18042;SDS011;9146;48.074;11.968;2023-05-07T09:35:21;3.80;;;3.50;;
18042;SDS011;9146;48.074;11.968;2023-05-07T09:37:49;7.37;;;4.47;;
18042;SDS011;9146;48.074;11.968;2023-05-07T09:40:22;4.90;;;3.70;;
18042;SDS011;9146;48.074;11.968;2023-05-07T09:42:51;3.70;;;3.40;;
18042;SDS011;9146;48.074;11.968;2023-05-07T09:45:22;3.37;;;3.10;;
18042;SDS011;9146;48.074;11.968;2023-05-07T09:47:49;4.70;;;3.70;;
18042;SDS011;9146;48.074;11.968;2023-05-07T09:50:21;2.90;;;2.70;;
18042;SDS011;9146;48.074;11.968;2023-05-07T09:52:52;3.47;;;3.17;;
18042;SDS011;9146;48.074;11.968;2023-05-07T09:55:20;3.60;;;3.20;;
18042;SDS011;9146;48.074;11.968;2023-05-07T09:57:48;3.03;;;2.80;;
18042;SDS011;9146;48.074;11.968;2023-05-07T10:00:19;2.57;;;2.37;;
18042;SDS011;9146;48.074;11.968;2023-05-07T10:02:47;3.13;;;2.93;;
18042;SDS011;9146;48.074;11.968;2023-05-07T10:05:17;3.20;;;2.40;;
18042;SDS011;9146;48.074;11.968;2023-05-07T10:07:44;2.83;;;2.50;;
18042;SDS011;9146;48.074;11.968;2023-05-07T10:10:12;3.30;;;3.00;;
18042;SDS011;9146;48.074;11.968;2023-05-07T10:12:40;2.83;;;2.30;;
18042;SDS011;9146;48.074;11.968;2023-05-07T10:15:09;3.80;;;2.83;;
18042;SDS011;9146;48.074;11.968;2023-05-07T10:17:37;2.03;;;1.90;;
18042;SDS011;9146;48.074;11.968;2023-05-07T10:20:06;5.70;;;3.10;;
18042;SDS011;9146;48.074;11.968;2023-05-07T10:22:37;4.37;;;2.90;;
18042;SDS011;9146;48.074;11.968;2023-05-07T10:25:06;2.47;;;2.27;;
18042;SDS011;9146;48.074;11.968;2023-05-07T10:27:40;2.67;;;2.47;;
18042;SDS011;9146;48.074;11.968;2023-05-07T10:30:11;3.07;;;2.87;;
18042;SDS011;9146;48.074;11.968;2023-05-07T10:32:47;2.23;;;1.93;;
18042;SDS011;9146;48.074;11.968;2023-05-07T10:35:16;2.57;;;2.40;;
18042;SDS011;9146;48.074;11.968;2023-05-07T10:37:46;4.37;;;2.93;;
18042;SDS011;9146;48.074;11.968;2023-05-07T10:40:14;5.50;;;2.50;;
18042;SDS011;9146;48.074;11.968;2023-05-07T10:42:53;4.40;;;4.00;;
18042;SDS011;9146;48.074;11.968;2023-05-07T10:45:23;3.87;;;3.57;;
18042;SDS011;9146;48.074;11.968;2023-05-07T10:48:06;2.97;;;2.77;;
18042;SDS011;9146;48.074;11.968;2023-05-07T10:50:35;4.03;;;3.10;;
18042;SDS011;9146;48.074;11.968;2023-05-07T10:53:21;3.10;;;2.80;;
18042;SDS011;9146;48.074;11.968;2023-05-07T10:58:52;2.90;;;2.70;;
18042;SDS011;9146;48.074;11.968;2023-05-07T11:04:19;4.67;;;2.87;;
18042;SDS011;9146;48.074;11.968;2023-05-07T11:10:02;2.73;;;2.53;;
18042;SDS011;9146;48.074;11.968;2023-05-07T11:12:46;2.77;;;2.20;;
18042;SDS011;9146;48.074;11.968;2023-05-07T11:18:08;2.50;;;2.30;;
18042;SDS011;9146;48.074;11.968;2023-05-07T11:20:49;2.50;;;2.30;;
18042;SDS011;9146;48.074;11.968;2023-05-07T11:26:26;3.00;;;2.80;;
18042;SDS011;9146;48.074;11.968;2023-05-07T11:28:54;3.20;;;2.90;;
18042;SDS011;9146;48.074;11.968;2023-05-07T11:31:22;2.47;;;2.27;;
18042;SDS011;9146;48.074;11.968;2023-05-07T11:33:54;4.07;;;2.80;;
18042;SDS011;9146;48.074;11.968;2023-05-07T11:36:22;3.87;;;3.20;;
18042;SDS011;9146;48.074;11.968;2023-05-07T11:38:50;2.77;;;2.07;;
18042;SDS011;9146;48.074;11.968;2023-05-07T11:41:17;2.53;;;2.33;;
18042;SDS011;9146;48.074;11.968;2023-05-07T11:43:53;2.77;;;2.10;;
18042;SDS011;9146;48.074;11.968;2023-05-07T11:46:22;2.77;;;2.27;;
18042;SDS011;9146;48.074;11.968;2023-05-07T11:48:49;2.70;;;2.40;;
18042;SDS011;9146;48.074;11.968;2023-05-07T11:51:20;2.63;;;2.43;;
18042;SDS011;9146;48.074;11.968;2023-05-07T11:53:47;2.83;;;2.60;;
18042;SDS011;9146;48.074;11.968;2023-05-07T11:56:15;2.60;;;2.40;;
18042;SDS011;9146;48.074;11.968;2023-05-07T11:58:43;4.40;;;2.57;;
18042;SDS011;9146;48.074;11.968;2023-05-07T12:01:12;2.13;;;2.00;;
18042;SDS011;9146;48.074;11.968;2023-05-07T12:03:40;2.17;;;2.00;;
18042;SDS011;9146;48.074;11.968;2023-05-07T12:06:09;2.80;;;2.60;;
18042;SDS011;9146;48.074;11.968;2023-05-07T12:08:38;3.00;;;2.50;;
18042;SDS011;9146;48.074;11.968;2023-05-07T12:11:06;2.63;;;2.17;;
18042;SDS011;9146;48.074;11.968;2023-05-07T12:13:36;2.07;;;1.97;;
18042;SDS011;9146;48.074;11.968;2023-05-07T12:16:04;2.27;;;2.07;;
18042;SDS011;9146;48.074;11.968;2023-05-07T12:18:32;2.00;;;1.90;;
18042;SDS011;9146;48.074;11.968;2023-05-07T12:21:03;2.60;;;2.07;;
18042;SDS011;9146;48.074;11.968;2023-05-07T12:23:31;3.00;;;1.77;;
18042;SDS011;9146;48.074;11.968;2023-05-07T12:26:00;2.03;;;1.93;;
18042;SDS011;9146;48.074;11.968;2023-05-07T12:28:27;4.83;;;2.50;;
18042;SDS011;9146;48.074;11.968;2023-05-07T12:30:55;1.83;;;1.73;;
18042;SDS011;9146;48.074;11.968;2023-05-07T12:33:24;2.10;;;2.00;;
18042;SDS011;9146;48.074;11.968;2023-05-07T12:35:54;3.43;;;2.40;;
18042;SDS011;9146;48.074;11.968;2023-05-07T12:38:22;2.30;;;2.10;;
18042;SDS011;9146;48.074;11.968;2023-05-07T12:40:50;2.40;;;2.20;;
18042;SDS011;9146;48.074;11.968;2023-05-07T12:43:21;2.43;;;2.23;;
18042;SDS011;9146;48.074;11.968;2023-05-07T12:45:51;2.20;;;2.10;;
18042;SDS011;9146;48.074;11.968;2023-05-07T12:48:20;2.03;;;1.93;;
18042;SDS011;9146;48.074;11.968;2023-05-07T12:50:49;2.73;;;2.10;;
18042;SDS011;9146;48.074;11.968;2023-05-07T12:53:16;2.33;;;2.17;;
18042;SDS011;9146;48.074;11.968;2023-05-07T12:55:44;2.20;;;1.90;;
18042;SDS011;9146;48.074;11.968;2023-05-07T12:58:15;2.60;;;2.40;;
18042;SDS011;9146;48.074;11.968;2023-05-07T13:00:46;2.27;;;2.00;;
18042;SDS011;9146;48.074;11.968;2023-05-07T13:03:20;2.93;;;2.60;;
18042;SDS011;9146;48.074;11.968;2023-05-07T13:05:48;6.07;;;2.70;;
18042;SDS011;9146;48.074;11.968;2023-05-07T13:08:23;2.63;;;2.43;;
18042;SDS011;9146;48.074;11.968;2023-05-07T13:10:51;2.50;;;2.30;;
18042;SDS011;9146;48.074;11.968;2023-05-07T13:13:18;3.43;;;2.57;;
18042;SDS011;9146;48.074;11.968;2023-05-07T13:15:46;2.47;;;2.27;;
18042;SDS011;9146;48.074;11.968;2023-05-07T13:18:13;2.70;;;2.50;;
18042;SDS011;9146;48.074;11.968;2023-05-07T13:20:40;2.93;;;2.63;;
18042;SDS011;9146;48.074;11.968;2023-05-07T13:23:07;2.90;;;2.70;;
18042;SDS011;9146;48.074;11.968;2023-05-07T13:25:35;2.50;;;2.17;;
18042;SDS011;9146;48.074;11.968;2023-05-07T13:28:02;2.40;;;2.30;;
18042;SDS011;9146;48.074;11.968;2023-05-07T13:30:29;2.90;;;2.67;;
18042;SDS011;9146;48.074;11.968;2023-05-07T13:32:58;2.67;;;2.47;;
18042;SDS011;9146;48.074;11.968;2023-05-07T13:35:25;2.90;;;2.70;;
18042;SDS011;9146;48.074;11.968;2023-05-07T13:37:51;2.30;;;2.20;;
18042;SDS011;9146;48.074;11.968;2023-05-07T13:40:19;2.40;;;2.20;;
18042;SDS011;9146;48.074;11.968;2023-05-07T13:42:47;2.70;;;2.37;;
18042;SDS011;9146;48.074;11.968;2023-05-07T13:45:14;2.83;;;2.33;;
18042;SDS011;9146;48.074;11.968;2023-05-07T13:47:41;2.10;;;2.00;;
18042;SDS011;9146;48.074;11.968;2023-05-07T13:50:10;2.10;;;2.00;;
18042;SDS011;9146;48.074;11.968;2023-05-07T13:52:38;3.10;;;2.53;;
18042;SDS011;9146;48.074;11.968;2023-05-07T13:55:08;2.33;;;2.23;;
18042;SDS011;9146;48.074;11.968;2023-05-07T13:57:36;2.43;;;2.20;;
18042;SDS011;9146;48.074;11.968;2023-05-07T14:00:03;3.23;;;2.43;;
18042;SDS011;9146;48.074;11.968;2023-05-07T14:02:31;2.60;;;2.40;;
18042;SDS011;9146;48.074;11.968;2023-05-07T14:04:58;2.43;;;2.27;;
18042;SDS011;9146;48.074;11.968;2023-05-07T14:07:27;2.73;;;2.00;;
18042;SDS011;9146;48.074;11.968;2023-05-07T14:09:54;2.10;;;1.97;;
18042;SDS011;9146;48.074;11.968;2023-05-07T14:12:21;3.63;;;2.17;;
18042;SDS011;9146;48.074;11.968;2023-05-07T14:14:48;1.93;;;1.80;;
18042;SDS011;9146;48.074;11.968;2023-05-07T14:17:16;1.80;;;1.70;;
18042;SDS011;9146;48.074;11.968;2023-05-07T14:19:43;2.73;;;1.93;;
18042;SDS011;9146;48.074;11.968;2023-05-07T14:22:10;4.10;;;2.10;;
18042;SDS011;9146;48.074;11.968;2023-05-07T14:24:41;2.03;;;1.93;;
18042;SDS011;9146;48.074;11.968;2023-05-07T14:27:08;2.13;;;2.03;;
18042;SDS011;9146;48.074;11.968;2023-05-07T14:29:35;2.27;;;2.13;;
18042;SDS011;9146;48.074;11.968;2023-05-07T14:32:02;1.90;;;1.80;;
18042;SDS011;9146;48.074;11.968;2023-05-07T14:34:29;1.97;;;1.87;;
18042;SDS011;9146;48.074;11.968;2023-05-07T14:36:57;2.13;;;1.90;;
18042;SDS011;9146;48.074;11.968;2023-05-07T14:39:26;2.03;;;1.93;;
18042;SDS011;9146;48.074;11.968;2023-05-07T14:41:55;2.07;;;1.97;;
18042;SDS011;9146;48.074;11.968;2023-05-07T14:44:23;2.13;;;2.03;;
18042;SDS011;9146;48.074;11.968;2023-05-07T14:46:50;1.87;;;1.73;;
18042;SDS011;9146;48.074;11.968;2023-05-07T14:49:17;2.23;;;2.13;;
18042;SDS011;9146;48.074;11.968;2023-05-07T14:51:44;2.00;;;1.90;;
18042;SDS011;9146;48.074;11.968;2023-05-07T14:54:11;12.43;;;2.40;;
18042;SDS011;9146;48.074;11.968;2023-05-07T14:56:38;1.77;;;1.67;;
18042;SDS011;9146;48.074;11.968;2023-05-07T14:59:08;2.10;;;2.00;;
18042;SDS011;9146;48.074;11.968;2023-05-07T15:01:35;2.43;;;2.23;;
18042;SDS011;9146;48.074;11.968;2023-05-07T15:04:02;2.73;;;1.90;;
18042;SDS011;9146;48.074;11.968;2023-05-07T15:06:30;2.47;;;2.27;;